sensor_id;sensor_type;location;lat;lon;timestamp;P1;durP1;ratioP1;P2;durP2;ratioP2
38113;SDS011;23926;53.222;6.354;2023-11-18T00:00:07;18.08;;;10.27;;
38113;SDS011;23926;53.222;6.354;2023-11-18T00:02:37;14.35;;;9.70;;
38113;SDS011;23926;53.222;6.354;2023-11-18T00:05:03;22.83;;;12.38;;
38113;SDS011;23926;53.222;6.354;2023-11-18T00:07:29;18.75;;;10.35;;
38113;SDS011;23926;53.222;6.354;2023-11-18T00:09:57;13.00;;;10.50;;
38113;SDS011;23926;53.222;6.354;2023-11-18T00:12:22;16.27;;;11.65;;
38113;SDS011;23926;53.222;6.354;2023-11-18T00:14:49;23.98;;;12.88;;
38113;SDS011;23926;53.222;6.354;2023-11-18T00:17:15;19.88;;;13.55;;
38113;SDS011;23926;53.222;6.354;2023-11-18T00:19:41;17.38;;;12.65;;
38113;SDS011;23926;53.222;6.354;2023-11-18T00:22:07;19.45;;;13.23;;
38113;SDS011;23926;53.222;6.354;2023-11-18T00:24:33;19.98;;;11.25;;
38113;SDS011;23926;53.222;6.354;2023-11-18T00:26:59;16.77;;;11.82;;
38113;SDS011;23926;53.222;6.354;2023-11-18T00:29:30;17.42;;;12.32;;
38113;SDS011;23926;53.222;6.354;2023-11-18T00:31:57;13.10;;;9.18;;
38113;SDS011;23926;53.222;6.354;2023-11-18T00:34:22;18.25;;;13.25;;
38113;SDS011;23926;53.222;6.354;2023-11-18T00:36:48;17.95;;;12.82;;
38113;SDS011;23926;53.222;6.354;2023-11-18T00:39:14;17.50;;;12.77;;
38113;SDS011;23926;53.222;6.354;2023-11-18T00:41:39;27.02;;;15.32;;
38113;SDS011;23926;53.222;6.354;2023-11-18T00:44:04;26.02;;;13.45;;
38113;SDS011;23926;53.222;6.354;2023-11-18T00:46:32;14.05;;;11.23;;
38113;SDS011;23926;53.222;6.354;2023-11-18T00:49:01;21.15;;;12.10;;
38113;SDS011;23926;53.222;6.354;2023-11-18T00:51:27;18.17;;;11.20;;
38113;SDS011;23926;53.222;6.354;2023-11-18T00:53:53;28.55;;;12.30;;
38113;SDS011;23926;53.222;6.354;2023-11-18T00:56:19;21.55;;;11.48;;
38113;SDS011;23926;53.222;6.354;2023-11-18T00:58:48;16.90;;;11.48;;
38113;SDS011;23926;53.222;6.354;2023-11-18T01:01:14;24.83;;;13.80;;
38113;SDS011;23926;53.222;6.354;2023-11-18T01:03:42;24.90;;;14.75;;
38113;SDS011;23926;53.222;6.354;2023-11-18T01:06:11;23.52;;;14.63;;
38113;SDS011;23926;53.222;6.354;2023-11-18T01:08:36;29.45;;;14.10;;
38113;SDS011;23926;53.222;6.354;2023-11-18T01:11:02;20.10;;;11.55;;
38113;SDS011;23926;53.222;6.354;2023-11-18T01:13:29;24.63;;;13.13;;
38113;SDS011;23926;53.222;6.354;2023-11-18T01:15:55;14.23;;;9.20;;
38113;SDS011;23926;53.222;6.354;2023-11-18T01:18:20;14.93;;;10.10;;
38113;SDS011;23926;53.222;6.354;2023-11-18T01:20:46;12.73;;;9.10;;
38113;SDS011;23926;53.222;6.354;2023-11-18T01:23:12;11.45;;;7.68;;
38113;SDS011;23926;53.222;6.354;2023-11-18T01:25:37;9.07;;;7.93;;
38113;SDS011;23926;53.222;6.354;2023-11-18T01:28:03;13.80;;;10.70;;
38113;SDS011;23926;53.222;6.354;2023-11-18T01:30:29;13.25;;;10.18;;
38113;SDS011;23926;53.222;6.354;2023-11-18T01:32:54;15.07;;;10.13;;
38113;SDS011;23926;53.222;6.354;2023-11-18T01:35:19;8.90;;;7.03;;
38113;SDS011;23926;53.222;6.354;2023-11-18T01:37:45;10.55;;;8.38;;
38113;SDS011;23926;53.222;6.354;2023-11-18T01:40:10;7.93;;;6.80;;
38113;SDS011;23926;53.222;6.354;2023-11-18T01:42:38;11.82;;;7.80;;
38113;SDS011;23926;53.222;6.354;2023-11-18T01:45:03;14.63;;;10.05;;
38113;SDS011;23926;53.222;6.354;2023-11-18T01:47:31;18.35;;;12.32;;
38113;SDS011;23926;53.222;6.354;2023-11-18T01:49:58;28.65;;;12.10;;
38113;SDS011;23926;53.222;6.354;2023-11-18T01:52:25;19.77;;;12.10;;
38113;SDS011;23926;53.222;6.354;2023-11-18T01:54:52;19.90;;;12.95;;
38113;SDS011;23926;53.222;6.354;2023-11-18T01:57:20;32.92;;;14.68;;
38113;SDS011;23926;53.222;6.354;2023-11-18T01:59:46;25.30;;;15.25;;
38113;SDS011;23926;53.222;6.354;2023-11-18T02:02:11;17.38;;;11.68;;
38113;SDS011;23926;53.222;6.354;2023-11-18T02:04:38;18.67;;;11.30;;
38113;SDS011;23926;53.222;6.354;2023-11-18T02:07:04;28.52;;;13.07;;
38113;SDS011;23926;53.222;6.354;2023-11-18T02:09:34;29.65;;;14.73;;
38113;SDS011;23926;53.222;6.354;2023-11-18T02:14:38;22.10;;;14.30;;
38113;SDS011;23926;53.222;6.354;2023-11-18T02:17:05;69.70;;;18.63;;
38113;SDS011;23926;53.222;6.354;2023-11-18T02:19:31;40.00;;;15.80;;
38113;SDS011;23926;53.222;6.354;2023-11-18T02:21:56;29.05;;;14.68;;
38113;SDS011;23926;53.222;6.354;2023-11-18T02:24:26;20.55;;;13.10;;
38113;SDS011;23926;53.222;6.354;2023-11-18T02:27:02;19.10;;;12.57;;
38113;SDS011;23926;53.222;6.354;2023-11-18T02:29:32;17.75;;;13.55;;
38113;SDS011;23926;53.222;6.354;2023-11-18T02:32:13;21.65;;;13.77;;
38113;SDS011;23926;53.222;6.354;2023-11-18T02:34:53;24.58;;;13.52;;
38113;SDS011;23926;53.222;6.354;2023-11-18T02:37:28;16.00;;;10.63;;
38113;SDS011;23926;53.222;6.354;2023-11-18T02:40:00;20.30;;;13.15;;
38113;SDS011;23926;53.222;6.354;2023-11-18T02:42:33;14.32;;;11.82;;
38113;SDS011;23926;53.222;6.354;2023-11-18T02:45:03;15.55;;;10.00;;
38113;SDS011;23926;53.222;6.354;2023-11-18T02:47:32;17.08;;;13.50;;
38113;SDS011;23926;53.222;6.354;2023-11-18T02:49:57;25.10;;;13.68;;
38113;SDS011;23926;53.222;6.354;2023-11-18T02:52:31;23.30;;;16.02;;
38113;SDS011;23926;53.222;6.354;2023-11-18T02:54:58;26.23;;;14.30;;
38113;SDS011;23926;53.222;6.354;2023-11-18T02:57:23;31.60;;;19.08;;
38113;SDS011;23926;53.222;6.354;2023-11-18T02:59:49;24.00;;;16.55;;
38113;SDS011;23926;53.222;6.354;2023-11-18T03:02:14;34.10;;;18.58;;
38113;SDS011;23926;53.222;6.354;2023-11-18T03:04:40;30.35;;;20.77;;
38113;SDS011;23926;53.222;6.354;2023-11-18T03:07:09;41.42;;;19.80;;
38113;SDS011;23926;53.222;6.354;2023-11-18T03:09:34;26.05;;;18.25;;
38113;SDS011;23926;53.222;6.354;2023-11-18T03:12:01;29.02;;;17.17;;
38113;SDS011;23926;53.222;6.354;2023-11-18T03:14:27;23.08;;;12.73;;
38113;SDS011;23926;53.222;6.354;2023-11-18T03:16:53;34.55;;;19.52;;
38113;SDS011;23926;53.222;6.354;2023-11-18T03:19:20;34.30;;;17.38;;
38113;SDS011;23926;53.222;6.354;2023-11-18T03:21:50;15.13;;;13.07;;
38113;SDS011;23926;53.222;6.354;2023-11-18T03:24:18;24.05;;;13.27;;
38113;SDS011;23926;53.222;6.354;2023-11-18T03:26:43;20.77;;;12.65;;
38113;SDS011;23926;53.222;6.354;2023-11-18T03:29:09;19.75;;;13.88;;
38113;SDS011;23926;53.222;6.354;2023-11-18T03:31:36;17.05;;;12.73;;
38113;SDS011;23926;53.222;6.354;2023-11-18T03:34:01;25.73;;;13.63;;
38113;SDS011;23926;53.222;6.354;2023-11-18T03:36:27;17.98;;;11.93;;
38113;SDS011;23926;53.222;6.354;2023-11-18T03:38:52;16.20;;;13.30;;
38113;SDS011;23926;53.222;6.354;2023-11-18T03:41:18;21.23;;;13.38;;
38113;SDS011;23926;53.222;6.354;2023-11-18T03:43:44;22.60;;;14.75;;
38113;SDS011;23926;53.222;6.354;2023-11-18T03:46:09;16.38;;;14.73;;
38113;SDS011;23926;53.222;6.354;2023-11-18T03:48:36;15.00;;;13.55;;
38113;SDS011;23926;53.222;6.354;2023-11-18T03:51:01;16.77;;;15.07;;
38113;SDS011;23926;53.222;6.354;2023-11-18T03:53:28;20.05;;;15.60;;
38113;SDS011;23926;53.222;6.354;2023-11-18T03:55:54;15.80;;;14.30;;
38113;SDS011;23926;53.222;6.354;2023-11-18T03:58:19;19.60;;;14.02;;
38113;SDS011;23926;53.222;6.354;2023-11-18T04:00:44;16.02;;;14.27;;
38113;SDS011;23926;53.222;6.354;2023-11-18T04:03:10;19.00;;;13.40;;
38113;SDS011;23926;53.222;6.354;2023-11-18T04:05:35;16.83;;;15.05;;
38113;SDS011;23926;53.222;6.354;2023-11-18T04:08:02;15.65;;;14.00;;
38113;SDS011;23926;53.222;6.354;2023-11-18T04:10:28;16.80;;;15.20;;
38113;SDS011;23926;53.222;6.354;2023-11-18T04:12:53;18.30;;;16.02;;
38113;SDS011;23926;53.222;6.354;2023-11-18T04:15:18;23.98;;;16.05;;
38113;SDS011;23926;53.222;6.354;2023-11-18T04:17:44;20.10;;;17.73;;
38113;SDS011;23926;53.222;6.354;2023-11-18T04:20:10;20.85;;;17.58;;
38113;SDS011;23926;53.222;6.354;2023-11-18T04:22:42;18.15;;;16.40;;
38113;SDS011;23926;53.222;6.354;2023-11-18T04:25:08;18.80;;;16.98;;
38113;SDS011;23926;53.222;6.354;2023-11-18T04:27:35;18.73;;;17.10;;
38113;SDS011;23926;53.222;6.354;2023-11-18T04:30:01;20.80;;;19.10;;
38113;SDS011;23926;53.222;6.354;2023-11-18T04:32:26;22.83;;;20.50;;
38113;SDS011;23926;53.222;6.354;2023-11-18T04:34:52;21.88;;;19.23;;
38113;SDS011;23926;53.222;6.354;2023-11-18T04:37:17;20.15;;;17.83;;
38113;SDS011;23926;53.222;6.354;2023-11-18T04:39:43;23.02;;;18.70;;
38113;SDS011;23926;53.222;6.354;2023-11-18T04:42:08;27.17;;;19.10;;
38113;SDS011;23926;53.222;6.354;2023-11-18T04:44:33;20.35;;;17.75;;
38113;SDS011;23926;53.222;6.354;2023-11-18T04:46:59;17.88;;;15.68;;
38113;SDS011;23926;53.222;6.354;2023-11-18T04:49:26;23.73;;;20.00;;
38113;SDS011;23926;53.222;6.354;2023-11-18T04:51:51;20.08;;;17.67;;
38113;SDS011;23926;53.222;6.354;2023-11-18T04:54:17;19.80;;;16.75;;
38113;SDS011;23926;53.222;6.354;2023-11-18T04:56:42;21.20;;;17.45;;
38113;SDS011;23926;53.222;6.354;2023-11-18T04:59:09;19.00;;;17.27;;
38113;SDS011;23926;53.222;6.354;2023-11-18T05:01:34;21.40;;;19.02;;
38113;SDS011;23926;53.222;6.354;2023-11-18T05:04:00;23.88;;;21.20;;
38113;SDS011;23926;53.222;6.354;2023-11-18T05:06:25;22.13;;;19.85;;
38113;SDS011;23926;53.222;6.354;2023-11-18T05:08:51;20.90;;;19.10;;
38113;SDS011;23926;53.222;6.354;2023-11-18T05:11:17;24.30;;;22.00;;
38113;SDS011;23926;53.222;6.354;2023-11-18T05:13:42;21.08;;;18.85;;
38113;SDS011;23926;53.222;6.354;2023-11-18T05:16:08;20.80;;;16.42;;
38113;SDS011;23926;53.222;6.354;2023-11-18T05:18:35;18.85;;;15.90;;
38113;SDS011;23926;53.222;6.354;2023-11-18T05:21:02;19.60;;;16.17;;
38113;SDS011;23926;53.222;6.354;2023-11-18T05:23:30;18.48;;;16.58;;
38113;SDS011;23926;53.222;6.354;2023-11-18T05:25:55;22.42;;;15.90;;
38113;SDS011;23926;53.222;6.354;2023-11-18T05:28:21;21.38;;;17.10;;
38113;SDS011;23926;53.222;6.354;2023-11-18T05:30:47;22.35;;;17.25;;
38113;SDS011;23926;53.222;6.354;2023-11-18T05:33:12;20.55;;;17.15;;
38113;SDS011;23926;53.222;6.354;2023-11-18T05:35:42;25.15;;;18.42;;
38113;SDS011;23926;53.222;6.354;2023-11-18T05:38:14;26.80;;;19.33;;
38113;SDS011;23926;53.222;6.354;2023-11-18T05:40:43;20.23;;;17.63;;
38113;SDS011;23926;53.222;6.354;2023-11-18T05:43:19;17.65;;;15.73;;
38113;SDS011;23926;53.222;6.354;2023-11-18T05:45:46;26.98;;;19.17;;
38113;SDS011;23926;53.222;6.354;2023-11-18T05:48:21;22.85;;;18.10;;
38113;SDS011;23926;53.222;6.354;2023-11-18T05:50:46;20.55;;;18.17;;
38113;SDS011;23926;53.222;6.354;2023-11-18T05:53:12;19.08;;;17.20;;
38113;SDS011;23926;53.222;6.354;2023-11-18T05:55:37;19.13;;;16.08;;
38113;SDS011;23926;53.222;6.354;2023-11-18T05:58:02;25.23;;;18.83;;
38113;SDS011;23926;53.222;6.354;2023-11-18T06:00:28;21.83;;;18.88;;
38113;SDS011;23926;53.222;6.354;2023-11-18T06:02:55;23.52;;;20.85;;
38113;SDS011;23926;53.222;6.354;2023-11-18T06:05:21;24.75;;;19.10;;
38113;SDS011;23926;53.222;6.354;2023-11-18T06:07:49;19.77;;;17.20;;
38113;SDS011;23926;53.222;6.354;2023-11-18T06:10:15;21.90;;;18.85;;
38113;SDS011;23926;53.222;6.354;2023-11-18T06:12:40;22.33;;;18.92;;
38113;SDS011;23926;53.222;6.354;2023-11-18T06:15:06;24.83;;;22.05;;
38113;SDS011;23926;53.222;6.354;2023-11-18T06:17:33;22.73;;;20.38;;
38113;SDS011;23926;53.222;6.354;2023-11-18T06:19:59;23.38;;;20.48;;
38113;SDS011;23926;53.222;6.354;2023-11-18T06:22:24;22.90;;;18.58;;
38113;SDS011;23926;53.222;6.354;2023-11-18T06:24:50;24.30;;;19.92;;
38113;SDS011;23926;53.222;6.354;2023-11-18T06:27:16;25.67;;;18.10;;
38113;SDS011;23926;53.222;6.354;2023-11-18T06:29:43;22.33;;;19.05;;
38113;SDS011;23926;53.222;6.354;2023-11-18T06:32:09;23.52;;;19.60;;
38113;SDS011;23926;53.222;6.354;2023-11-18T06:34:34;21.25;;;18.17;;
38113;SDS011;23926;53.222;6.354;2023-11-18T06:37:00;24.33;;;19.50;;
38113;SDS011;23926;53.222;6.354;2023-11-18T06:39:26;22.35;;;18.15;;
38113;SDS011;23926;53.222;6.354;2023-11-18T06:41:55;23.02;;;19.20;;
38113;SDS011;23926;53.222;6.354;2023-11-18T06:44:22;21.35;;;18.88;;
38113;SDS011;23926;53.222;6.354;2023-11-18T06:46:49;23.63;;;21.10;;
38113;SDS011;23926;53.222;6.354;2023-11-18T06:49:16;31.55;;;20.13;;
38113;SDS011;23926;53.222;6.354;2023-11-18T06:51:41;20.70;;;18.45;;
38113;SDS011;23926;53.222;6.354;2023-11-18T06:54:07;27.58;;;20.83;;
38113;SDS011;23926;53.222;6.354;2023-11-18T06:56:39;27.60;;;20.75;;
38113;SDS011;23926;53.222;6.354;2023-11-18T06:59:12;23.27;;;18.92;;
38113;SDS011;23926;53.222;6.354;2023-11-18T07:01:38;21.63;;;19.15;;
38113;SDS011;23926;53.222;6.354;2023-11-18T07:04:10;35.35;;;21.45;;
38113;SDS011;23926;53.222;6.354;2023-11-18T07:06:36;28.27;;;21.02;;
38113;SDS011;23926;53.222;6.354;2023-11-18T07:09:06;25.50;;;19.92;;
38113;SDS011;23926;53.222;6.354;2023-11-18T07:11:45;24.80;;;20.27;;
38113;SDS011;23926;53.222;6.354;2023-11-18T07:14:12;24.08;;;20.23;;
38113;SDS011;23926;53.222;6.354;2023-11-18T07:16:39;29.67;;;19.17;;
38113;SDS011;23926;53.222;6.354;2023-11-18T07:19:06;26.25;;;19.58;;
38113;SDS011;23926;53.222;6.354;2023-11-18T07:21:31;29.05;;;20.45;;
38113;SDS011;23926;53.222;6.354;2023-11-18T07:23:58;23.83;;;18.77;;
38113;SDS011;23926;53.222;6.354;2023-11-18T07:26:24;24.85;;;17.77;;
38113;SDS011;23926;53.222;6.354;2023-11-18T07:28:49;37.08;;;20.10;;
38113;SDS011;23926;53.222;6.354;2023-11-18T07:31:15;30.48;;;19.45;;
38113;SDS011;23926;53.222;6.354;2023-11-18T07:33:43;30.52;;;21.30;;
38113;SDS011;23926;53.222;6.354;2023-11-18T07:36:13;27.83;;;18.52;;
38113;SDS011;23926;53.222;6.354;2023-11-18T07:38:40;28.70;;;20.83;;
38113;SDS011;23926;53.222;6.354;2023-11-18T07:41:06;22.10;;;18.58;;
38113;SDS011;23926;53.222;6.354;2023-11-18T07:43:33;35.25;;;22.52;;
38113;SDS011;23926;53.222;6.354;2023-11-18T07:46:01;28.58;;;20.80;;
38113;SDS011;23926;53.222;6.354;2023-11-18T07:48:27;25.13;;;19.92;;
38113;SDS011;23926;53.222;6.354;2023-11-18T07:50:53;30.88;;;23.70;;
38113;SDS011;23926;53.222;6.354;2023-11-18T07:53:18;30.60;;;21.60;;
38113;SDS011;23926;53.222;6.354;2023-11-18T07:55:44;28.25;;;20.50;;
38113;SDS011;23926;53.222;6.354;2023-11-18T07:58:10;28.52;;;20.85;;
38113;SDS011;23926;53.222;6.354;2023-11-18T08:00:40;24.10;;;21.52;;
38113;SDS011;23926;53.222;6.354;2023-11-18T08:03:06;28.98;;;19.67;;
38113;SDS011;23926;53.222;6.354;2023-11-18T08:05:36;27.50;;;20.65;;
38113;SDS011;23926;53.222;6.354;2023-11-18T08:08:09;31.58;;;20.98;;
38113;SDS011;23926;53.222;6.354;2023-11-18T08:10:38;28.13;;;20.38;;
38113;SDS011;23926;53.222;6.354;2023-11-18T08:13:05;28.00;;;20.30;;
38113;SDS011;23926;53.222;6.354;2023-11-18T08:15:32;24.77;;;20.52;;
38113;SDS011;23926;53.222;6.354;2023-11-18T08:18:10;26.85;;;19.17;;
38113;SDS011;23926;53.222;6.354;2023-11-18T08:20:36;28.55;;;19.80;;
38113;SDS011;23926;53.222;6.354;2023-11-18T08:23:02;27.48;;;21.65;;
38113;SDS011;23926;53.222;6.354;2023-11-18T08:25:29;26.92;;;22.80;;
38113;SDS011;23926;53.222;6.354;2023-11-18T08:27:55;27.10;;;22.10;;
38113;SDS011;23926;53.222;6.354;2023-11-18T08:30:20;26.42;;;19.38;;
38113;SDS011;23926;53.222;6.354;2023-11-18T08:32:47;29.52;;;21.20;;
38113;SDS011;23926;53.222;6.354;2023-11-18T08:35:13;29.63;;;21.02;;
38113;SDS011;23926;53.222;6.354;2023-11-18T08:37:39;25.30;;;20.58;;
38113;SDS011;23926;53.222;6.354;2023-11-18T08:40:06;28.67;;;21.50;;
38113;SDS011;23926;53.222;6.354;2023-11-18T08:42:45;24.90;;;22.35;;
38113;SDS011;23926;53.222;6.354;2023-11-18T08:47:52;26.83;;;23.88;;
38113;SDS011;23926;53.222;6.354;2023-11-18T08:50:18;28.75;;;23.17;;
38113;SDS011;23926;53.222;6.354;2023-11-18T08:52:44;37.08;;;24.38;;
38113;SDS011;23926;53.222;6.354;2023-11-18T08:55:12;32.55;;;22.63;;
38113;SDS011;23926;53.222;6.354;2023-11-18T08:57:43;35.53;;;23.88;;
38113;SDS011;23926;53.222;6.354;2023-11-18T09:00:29;31.35;;;24.10;;
38113;SDS011;23926;53.222;6.354;2023-11-18T09:03:11;28.67;;;25.15;;
38113;SDS011;23926;53.222;6.354;2023-11-18T09:05:57;31.02;;;28.00;;
38113;SDS011;23926;53.222;6.354;2023-11-18T09:08:28;32.90;;;28.02;;
38113;SDS011;23926;53.222;6.354;2023-11-18T09:11:01;35.08;;;29.15;;
38113;SDS011;23926;53.222;6.354;2023-11-18T09:13:30;40.25;;;36.00;;
38113;SDS011;23926;53.222;6.354;2023-11-18T09:16:00;40.50;;;35.03;;
38113;SDS011;23926;53.222;6.354;2023-11-18T09:18:33;41.35;;;37.40;;
38113;SDS011;23926;53.222;6.354;2023-11-18T09:21:00;37.75;;;33.72;;
38113;SDS011;23926;53.222;6.354;2023-11-18T09:23:28;36.17;;;32.88;;
38113;SDS011;23926;53.222;6.354;2023-11-18T09:25:55;39.83;;;32.45;;
38113;SDS011;23926;53.222;6.354;2023-11-18T09:28:21;33.50;;;30.00;;
38113;SDS011;23926;53.222;6.354;2023-11-18T09:30:54;32.53;;;26.98;;
38113;SDS011;23926;53.222;6.354;2023-11-18T09:33:23;40.25;;;27.77;;
38113;SDS011;23926;53.222;6.354;2023-11-18T09:36:02;30.85;;;26.33;;
38113;SDS011;23926;53.222;6.354;2023-11-18T09:38:29;34.53;;;25.83;;
38113;SDS011;23926;53.222;6.354;2023-11-18T09:40:56;36.55;;;26.20;;
38113;SDS011;23926;53.222;6.354;2023-11-18T09:43:28;28.52;;;23.92;;
38113;SDS011;23926;53.222;6.354;2023-11-18T09:46:10;32.93;;;25.73;;
38113;SDS011;23926;53.222;6.354;2023-11-18T09:51:23;31.05;;;23.85;;
38113;SDS011;23926;53.222;6.354;2023-11-18T09:53:55;40.08;;;27.60;;
38113;SDS011;23926;53.222;6.354;2023-11-18T10:02:02;37.90;;;31.38;;
38113;SDS011;23926;53.222;6.354;2023-11-18T10:04:29;38.08;;;33.90;;
38113;SDS011;23926;53.222;6.354;2023-11-18T10:06:56;42.13;;;36.63;;
38113;SDS011;23926;53.222;6.354;2023-11-18T10:09:26;35.55;;;31.67;;
38113;SDS011;23926;53.222;6.354;2023-11-18T10:12:05;45.65;;;32.03;;
38113;SDS011;23926;53.222;6.354;2023-11-18T10:14:36;37.42;;;32.47;;
38113;SDS011;23926;53.222;6.354;2023-11-18T10:17:06;42.00;;;30.45;;
38113;SDS011;23926;53.222;6.354;2023-11-18T10:22:25;50.63;;;30.88;;
38113;SDS011;23926;53.222;6.354;2023-11-18T10:24:52;39.75;;;34.47;;
38113;SDS011;23926;53.222;6.354;2023-11-18T10:27:26;45.28;;;31.65;;
38113;SDS011;23926;53.222;6.354;2023-11-18T10:32:22;37.30;;;31.05;;
38113;SDS011;23926;53.222;6.354;2023-11-18T10:34:52;40.15;;;30.85;;
38113;SDS011;23926;53.222;6.354;2023-11-18T10:37:22;40.58;;;36.20;;
38113;SDS011;23926;53.222;6.354;2023-11-18T10:39:48;47.15;;;35.28;;
38113;SDS011;23926;53.222;6.354;2023-11-18T10:42:16;46.75;;;38.10;;
38113;SDS011;23926;53.222;6.354;2023-11-18T10:44:55;39.08;;;33.15;;
38113;SDS011;23926;53.222;6.354;2023-11-18T10:47:28;46.00;;;35.40;;
38113;SDS011;23926;53.222;6.354;2023-11-18T10:49:57;46.20;;;38.75;;
38113;SDS011;23926;53.222;6.354;2023-11-18T10:52:24;47.60;;;36.17;;
38113;SDS011;23926;53.222;6.354;2023-11-18T10:54:51;39.05;;;34.85;;
38113;SDS011;23926;53.222;6.354;2023-11-18T10:57:21;48.30;;;36.95;;
38113;SDS011;23926;53.222;6.354;2023-11-18T11:00:04;39.47;;;35.30;;
38113;SDS011;23926;53.222;6.354;2023-11-18T11:02:38;44.88;;;40.22;;
38113;SDS011;23926;53.222;6.354;2023-11-18T11:05:06;46.65;;;41.70;;
38113;SDS011;23926;53.222;6.354;2023-11-18T11:07:41;54.63;;;43.50;;
38113;SDS011;23926;53.222;6.354;2023-11-18T11:10:07;49.10;;;41.67;;
38113;SDS011;23926;53.222;6.354;2023-11-18T11:12:39;51.97;;;42.17;;
38113;SDS011;23926;53.222;6.354;2023-11-18T11:15:30;50.08;;;43.03;;
38113;SDS011;23926;53.222;6.354;2023-11-18T11:17:58;57.88;;;40.10;;
38113;SDS011;23926;53.222;6.354;2023-11-18T11:21:43;57.45;;;49.65;;
38113;SDS011;23926;53.222;6.354;2023-11-18T11:32:06;54.92;;;48.83;;
38113;SDS011;23926;53.222;6.354;2023-11-18T11:34:39;48.22;;;40.80;;
38113;SDS011;23926;53.222;6.354;2023-11-18T11:37:10;62.50;;;56.87;;
38113;SDS011;23926;53.222;6.354;2023-11-18T11:39:36;59.60;;;54.47;;
38113;SDS011;23926;53.222;6.354;2023-11-18T11:42:03;59.22;;;54.03;;
38113;SDS011;23926;53.222;6.354;2023-11-18T11:44:34;67.38;;;60.92;;
38113;SDS011;23926;53.222;6.354;2023-11-18T11:47:07;58.38;;;52.58;;
38113;SDS011;23926;53.222;6.354;2023-11-18T11:49:44;60.03;;;54.05;;
38113;SDS011;23926;53.222;6.354;2023-11-18T11:52:18;45.97;;;41.60;;
38113;SDS011;23926;53.222;6.354;2023-11-18T11:54:56;48.95;;;43.95;;
38113;SDS011;23926;53.222;6.354;2023-11-18T11:57:28;48.97;;;44.03;;
38113;SDS011;23926;53.222;6.354;2023-11-18T12:02:21;47.28;;;42.85;;
38113;SDS011;23926;53.222;6.354;2023-11-18T12:04:51;44.95;;;40.72;;
38113;SDS011;23926;53.222;6.354;2023-11-18T12:07:20;40.33;;;36.65;;
38113;SDS011;23926;53.222;6.354;2023-11-18T12:09:48;42.85;;;37.53;;
38113;SDS011;23926;53.222;6.354;2023-11-18T12:12:19;41.65;;;38.10;;
38113;SDS011;23926;53.222;6.354;2023-11-18T12:14:52;40.50;;;36.28;;
38113;SDS011;23926;53.222;6.354;2023-11-18T12:17:22;48.13;;;43.70;;
38113;SDS011;23926;53.222;6.354;2023-11-18T12:19:53;49.92;;;45.47;;
38113;SDS011;23926;53.222;6.354;2023-11-18T12:22:23;47.20;;;43.33;;
38113;SDS011;23926;53.222;6.354;2023-11-18T12:49:43;100.10;;;93.32;;
38113;SDS011;23926;53.222;6.354;2023-11-18T12:52:09;97.32;;;91.18;;
38113;SDS011;23926;53.222;6.354;2023-11-18T12:54:38;90.28;;;85.47;;
38113;SDS011;23926;53.222;6.354;2023-11-18T12:57:08;93.32;;;87.70;;
38113;SDS011;23926;53.222;6.354;2023-11-18T12:59:35;99.35;;;93.70;;
38113;SDS011;23926;53.222;6.354;2023-11-18T13:02:01;87.30;;;82.47;;
38113;SDS011;23926;53.222;6.354;2023-11-18T13:04:32;76.68;;;71.70;;
38113;SDS011;23926;53.222;6.354;2023-11-18T13:06:59;71.35;;;66.60;;
38113;SDS011;23926;53.222;6.354;2023-11-18T13:09:26;71.22;;;66.15;;
38113;SDS011;23926;53.222;6.354;2023-11-18T13:11:56;67.47;;;62.97;;
38113;SDS011;23926;53.222;6.354;2023-11-18T13:14:26;72.88;;;68.68;;
38113;SDS011;23926;53.222;6.354;2023-11-18T13:16:53;76.85;;;72.20;;
38113;SDS011;23926;53.222;6.354;2023-11-18T13:19:28;92.25;;;86.43;;
38113;SDS011;23926;53.222;6.354;2023-11-18T13:21:58;88.00;;;83.30;;
38113;SDS011;23926;53.222;6.354;2023-11-18T13:24:27;85.07;;;79.80;;
38113;SDS011;23926;53.222;6.354;2023-11-18T13:26:53;86.50;;;81.57;;
38113;SDS011;23926;53.222;6.354;2023-11-18T13:29:20;90.25;;;84.40;;
38113;SDS011;23926;53.222;6.354;2023-11-18T13:31:47;83.22;;;78.30;;
38113;SDS011;23926;53.222;6.354;2023-11-18T13:34:13;82.88;;;78.00;;
38113;SDS011;23926;53.222;6.354;2023-11-18T13:36:39;80.40;;;75.90;;
38113;SDS011;23926;53.222;6.354;2023-11-18T13:39:04;90.28;;;85.53;;
38113;SDS011;23926;53.222;6.354;2023-11-18T13:41:32;84.82;;;79.90;;
38113;SDS011;23926;53.222;6.354;2023-11-18T13:43:57;88.78;;;83.82;;
38113;SDS011;23926;53.222;6.354;2023-11-18T13:46:24;91.75;;;85.85;;
38113;SDS011;23926;53.222;6.354;2023-11-18T13:48:49;100.07;;;94.75;;
38113;SDS011;23926;53.222;6.354;2023-11-18T13:51:16;100.07;;;94.43;;
38113;SDS011;23926;53.222;6.354;2023-11-18T13:53:44;104.65;;;99.13;;
38113;SDS011;23926;53.222;6.354;2023-11-18T13:56:11;111.28;;;105.03;;
38113;SDS011;23926;53.222;6.354;2023-11-18T13:58:37;101.60;;;96.38;;
38113;SDS011;23926;53.222;6.354;2023-11-18T14:01:06;108.10;;;102.55;;
38113;SDS011;23926;53.222;6.354;2023-11-18T14:03:34;113.68;;;107.93;;
38113;SDS011;23926;53.222;6.354;2023-11-18T14:06:02;112.90;;;107.20;;
38113;SDS011;23926;53.222;6.354;2023-11-18T14:08:30;114.55;;;108.90;;
38113;SDS011;23926;53.222;6.354;2023-11-18T14:10:55;107.43;;;101.95;;
38113;SDS011;23926;53.222;6.354;2023-11-18T14:13:21;112.03;;;106.28;;
38113;SDS011;23926;53.222;6.354;2023-11-18T14:15:47;138.98;;;132.32;;
38113;SDS011;23926;53.222;6.354;2023-11-18T14:18:13;149.18;;;141.57;;
38113;SDS011;23926;53.222;6.354;2023-11-18T14:20:39;153.90;;;145.65;;
38113;SDS011;23926;53.222;6.354;2023-11-18T14:23:05;162.95;;;155.07;;
38113;SDS011;23926;53.222;6.354;2023-11-18T14:25:34;173.90;;;165.57;;
38113;SDS011;23926;53.222;6.354;2023-11-18T14:28:00;183.15;;;174.73;;
38113;SDS011;23926;53.222;6.354;2023-11-18T14:30:27;197.50;;;188.27;;
38113;SDS011;23926;53.222;6.354;2023-11-18T14:32:52;206.68;;;197.07;;
38113;SDS011;23926;53.222;6.354;2023-11-18T14:35:18;222.95;;;212.52;;
38113;SDS011;23926;53.222;6.354;2023-11-18T14:37:44;222.63;;;212.27;;
38113;SDS011;23926;53.222;6.354;2023-11-18T14:40:12;225.05;;;214.27;;
38113;SDS011;23926;53.222;6.354;2023-11-18T14:42:42;226.43;;;215.95;;
38113;SDS011;23926;53.222;6.354;2023-11-18T14:45:08;214.88;;;204.75;;
38113;SDS011;23926;53.222;6.354;2023-11-18T14:47:35;221.70;;;211.07;;
38113;SDS011;23926;53.222;6.354;2023-11-18T14:50:00;214.00;;;203.90;;
38113;SDS011;23926;53.222;6.354;2023-11-18T14:52:28;225.38;;;215.00;;
38113;SDS011;23926;53.222;6.354;2023-11-18T14:54:54;219.73;;;209.65;;
38113;SDS011;23926;53.222;6.354;2023-11-18T14:57:19;213.15;;;202.80;;
38113;SDS011;23926;53.222;6.354;2023-11-18T14:59:46;230.13;;;219.02;;
38113;SDS011;23926;53.222;6.354;2023-11-18T15:02:11;224.63;;;214.15;;
38113;SDS011;23926;53.222;6.354;2023-11-18T15:04:37;243.82;;;232.10;;
38113;SDS011;23926;53.222;6.354;2023-11-18T15:07:02;249.75;;;237.70;;
38113;SDS011;23926;53.222;6.354;2023-11-18T15:09:28;242.05;;;230.73;;
38113;SDS011;23926;53.222;6.354;2023-11-18T15:11:57;243.00;;;231.45;;
38113;SDS011;23926;53.222;6.354;2023-11-18T15:14:23;238.02;;;226.80;;
38113;SDS011;23926;53.222;6.354;2023-11-18T15:16:50;243.73;;;232.32;;